Yantley, Alabama
Current Conditions -  °F | °C
As of 11:58 AM on Monday 26 Jan 2015 (Local Time) from KMEI Reporting Station
Broken Clouds Broken Clouds  
Wind Chill: 42°   Ceiling: 3000
Heat Index: 48°   Visibility: 10mi
Dew Point: 31°   Wind: 14mph
Humidity: 52%   Direction: 290°WNW
Pressure: 30.09"   Gusts: 21mph
Location:  32.241°N, 88.3441°W
Report Text: KMEI 261758Z 29012G18KT 10SM BKN030 09/M01 A3009 RMK AO2 SLP191 T00891006 10089 20067 58003
Loading
Personal Weather Stations






























Interactive Weather Map New forecast layout! Learn more

10-Day Weather Forecast

Advertisements
Track Severe Weather on mobile